Аэропорт: Магнитогорск. Магнитогорск

ICAO: USCM

METAR:
2019-11-21 01:30:00
USCM 210130Z 13002MPS 5000 BR NSC M21/M23 Q1041 R18/090060 NOSIG RMK QFE742
METAR:
Информация по данной станции не доступна